sensor_id;sensor_type;location;lat;lon;timestamp;P1;durP1;ratioP1;P2;durP2;ratioP2
18174;SDS011;9212;50.894;16.714;2023-02-24T00:01:13;39.20;;;17.57;;
18174;SDS011;9212;50.894;16.714;2023-02-24T00:03:49;36.83;;;16.47;;
18174;SDS011;9212;50.894;16.714;2023-02-24T00:06:17;33.20;;;15.63;;
18174;SDS011;9212;50.894;16.714;2023-02-24T00:08:44;38.33;;;17.03;;
18174;SDS011;9212;50.894;16.714;2023-02-24T00:11:13;38.37;;;16.47;;
18174;SDS011;9212;50.894;16.714;2023-02-24T00:13:42;39.17;;;16.40;;
18174;SDS011;9212;50.894;16.714;2023-02-24T00:16:11;42.00;;;17.50;;
18174;SDS011;9212;50.894;16.714;2023-02-24T00:18:40;39.53;;;16.90;;
18174;SDS011;9212;50.894;16.714;2023-02-24T00:21:08;35.13;;;15.47;;
18174;SDS011;9212;50.894;16.714;2023-02-24T00:23:39;37.87;;;17.00;;
18174;SDS011;9212;50.894;16.714;2023-02-24T00:26:07;37.87;;;16.73;;
18174;SDS011;9212;50.894;16.714;2023-02-24T00:28:38;42.73;;;17.77;;
18174;SDS011;9212;50.894;16.714;2023-02-24T00:31:06;36.07;;;15.57;;
18174;SDS011;9212;50.894;16.714;2023-02-24T00:33:35;46.53;;;17.30;;
18174;SDS011;9212;50.894;16.714;2023-02-24T00:36:04;38.10;;;16.33;;
18174;SDS011;9212;50.894;16.714;2023-02-24T00:38:33;37.80;;;16.00;;
18174;SDS011;9212;50.894;16.714;2023-02-24T00:41:06;41.50;;;15.83;;
18174;SDS011;9212;50.894;16.714;2023-02-24T00:43:37;38.13;;;16.30;;
18174;SDS011;9212;50.894;16.714;2023-02-24T00:46:05;37.17;;;15.27;;
18174;SDS011;9212;50.894;16.714;2023-02-24T00:48:36;40.53;;;15.53;;
18174;SDS011;9212;50.894;16.714;2023-02-24T00:51:05;36.40;;;16.10;;
18174;SDS011;9212;50.894;16.714;2023-02-24T00:53:34;41.40;;;15.03;;
18174;SDS011;9212;50.894;16.714;2023-02-24T00:56:03;38.17;;;16.23;;
18174;SDS011;9212;50.894;16.714;2023-02-24T00:58:33;35.93;;;13.67;;
18174;SDS011;9212;50.894;16.714;2023-02-24T01:01:02;39.90;;;17.13;;
18174;SDS011;9212;50.894;16.714;2023-02-24T01:03:33;40.97;;;16.23;;
18174;SDS011;9212;50.894;16.714;2023-02-24T01:06:00;38.17;;;16.03;;
18174;SDS011;9212;50.894;16.714;2023-02-24T01:08:28;43.70;;;17.00;;
18174;SDS011;9212;50.894;16.714;2023-02-24T01:11:00;37.17;;;15.77;;
18174;SDS011;9212;50.894;16.714;2023-02-24T01:13:46;46.27;;;16.07;;
18174;SDS011;9212;50.894;16.714;2023-02-24T01:16:14;41.40;;;16.90;;
18174;SDS011;9212;50.894;16.714;2023-02-24T01:18:43;39.50;;;16.40;;
18174;SDS011;9212;50.894;16.714;2023-02-24T01:21:11;41.73;;;16.57;;
18174;SDS011;9212;50.894;16.714;2023-02-24T01:23:38;40.27;;;16.87;;
18174;SDS011;9212;50.894;16.714;2023-02-24T01:26:06;40.27;;;17.93;;
18174;SDS011;9212;50.894;16.714;2023-02-24T01:28:34;40.03;;;16.80;;
18174;SDS011;9212;50.894;16.714;2023-02-24T01:31:02;39.93;;;15.60;;
18174;SDS011;9212;50.894;16.714;2023-02-24T01:33:31;41.67;;;17.73;;
18174;SDS011;9212;50.894;16.714;2023-02-24T01:36:06;46.67;;;17.93;;
18174;SDS011;9212;50.894;16.714;2023-02-24T01:38:35;41.50;;;16.80;;
18174;SDS011;9212;50.894;16.714;2023-02-24T01:41:03;48.60;;;18.57;;
18174;SDS011;9212;50.894;16.714;2023-02-24T01:43:31;43.63;;;18.77;;
18174;SDS011;9212;50.894;16.714;2023-02-24T01:45:58;46.23;;;17.73;;
18174;SDS011;9212;50.894;16.714;2023-02-24T01:48:25;44.77;;;19.10;;
18174;SDS011;9212;50.894;16.714;2023-02-24T01:50:55;43.17;;;17.43;;
18174;SDS011;9212;50.894;16.714;2023-02-24T01:53:23;46.57;;;19.30;;
18174;SDS011;9212;50.894;16.714;2023-02-24T01:55:50;45.97;;;17.87;;
18174;SDS011;9212;50.894;16.714;2023-02-24T01:58:20;47.40;;;18.67;;
18174;SDS011;9212;50.894;16.714;2023-02-24T02:00:50;45.40;;;18.17;;
18174;SDS011;9212;50.894;16.714;2023-02-24T02:03:22;39.13;;;17.13;;
18174;SDS011;9212;50.894;16.714;2023-02-24T02:05:52;51.13;;;18.20;;
18174;SDS011;9212;50.894;16.714;2023-02-24T02:08:25;45.80;;;18.83;;
18174;SDS011;9212;50.894;16.714;2023-02-24T02:10:53;41.73;;;17.97;;
18174;SDS011;9212;50.894;16.714;2023-02-24T02:13:23;48.70;;;19.47;;
18174;SDS011;9212;50.894;16.714;2023-02-24T02:15:54;48.73;;;18.07;;
18174;SDS011;9212;50.894;16.714;2023-02-24T02:18:34;54.63;;;20.07;;
18174;SDS011;9212;50.894;16.714;2023-02-24T02:21:24;48.10;;;19.80;;
18174;SDS011;9212;50.894;16.714;2023-02-24T02:24:24;54.27;;;20.53;;
18174;SDS011;9212;50.894;16.714;2023-02-24T02:27:16;44.03;;;18.97;;
18174;SDS011;9212;50.894;16.714;2023-02-24T02:33:13;53.17;;;19.40;;
18174;SDS011;9212;50.894;16.714;2023-02-24T02:36:11;44.67;;;20.13;;
18174;SDS011;9212;50.894;16.714;2023-02-24T02:38:42;44.00;;;17.33;;
18174;SDS011;9212;50.894;16.714;2023-02-24T02:41:17;40.20;;;17.37;;
18174;SDS011;9212;50.894;16.714;2023-02-24T02:43:50;46.57;;;19.83;;
18174;SDS011;9212;50.894;16.714;2023-02-24T02:46:27;40.83;;;17.50;;
18174;SDS011;9212;50.894;16.714;2023-02-24T02:49:01;42.43;;;16.73;;
18174;SDS011;9212;50.894;16.714;2023-02-24T02:51:38;41.00;;;17.07;;
18174;SDS011;9212;50.894;16.714;2023-02-24T02:54:09;43.13;;;18.57;;
18174;SDS011;9212;50.894;16.714;2023-02-24T02:56:43;39.10;;;17.77;;
18174;SDS011;9212;50.894;16.714;2023-02-24T02:59:13;42.57;;;17.17;;
18174;SDS011;9212;50.894;16.714;2023-02-24T03:01:46;43.97;;;17.30;;
18174;SDS011;9212;50.894;16.714;2023-02-24T03:04:19;37.73;;;15.67;;
18174;SDS011;9212;50.894;16.714;2023-02-24T03:06:52;34.83;;;14.47;;
18174;SDS011;9212;50.894;16.714;2023-02-24T03:09:23;34.47;;;14.83;;
18174;SDS011;9212;50.894;16.714;2023-02-24T03:11:54;39.03;;;14.77;;
18174;SDS011;9212;50.894;16.714;2023-02-24T03:14:27;32.70;;;14.60;;
18174;SDS011;9212;50.894;16.714;2023-02-24T03:16:59;33.70;;;14.63;;
18174;SDS011;9212;50.894;16.714;2023-02-24T03:19:31;40.77;;;16.07;;
18174;SDS011;9212;50.894;16.714;2023-02-24T03:22:05;33.53;;;15.10;;
18174;SDS011;9212;50.894;16.714;2023-02-24T03:24:36;35.00;;;15.23;;
18174;SDS011;9212;50.894;16.714;2023-02-24T03:27:05;51.63;;;19.17;;
18174;SDS011;9212;50.894;16.714;2023-02-24T03:29:35;47.67;;;16.90;;
18174;SDS011;9212;50.894;16.714;2023-02-24T03:32:05;44.70;;;17.00;;
18174;SDS011;9212;50.894;16.714;2023-02-24T03:34:36;45.40;;;19.73;;
18174;SDS011;9212;50.894;16.714;2023-02-24T03:37:08;47.00;;;18.17;;
18174;SDS011;9212;50.894;16.714;2023-02-24T03:39:35;49.57;;;18.07;;
18174;SDS011;9212;50.894;16.714;2023-02-24T03:42:03;42.23;;;17.57;;
18174;SDS011;9212;50.894;16.714;2023-02-24T03:44:31;41.93;;;16.70;;
18174;SDS011;9212;50.894;16.714;2023-02-24T03:46:59;45.37;;;17.63;;
18174;SDS011;9212;50.894;16.714;2023-02-24T03:49:27;44.30;;;17.47;;
18174;SDS011;9212;50.894;16.714;2023-02-24T03:51:58;38.83;;;16.27;;
18174;SDS011;9212;50.894;16.714;2023-02-24T03:54:40;37.90;;;15.10;;
18174;SDS011;9212;50.894;16.714;2023-02-24T03:57:20;34.73;;;15.87;;
18174;SDS011;9212;50.894;16.714;2023-02-24T03:59:52;39.63;;;15.00;;
18174;SDS011;9212;50.894;16.714;2023-02-24T04:02:24;33.73;;;14.47;;
18174;SDS011;9212;50.894;16.714;2023-02-24T04:04:54;35.87;;;15.37;;
18174;SDS011;9212;50.894;16.714;2023-02-24T04:07:26;34.27;;;15.63;;
18174;SDS011;9212;50.894;16.714;2023-02-24T04:10:02;33.70;;;14.60;;
18174;SDS011;9212;50.894;16.714;2023-02-24T04:12:35;34.33;;;15.00;;
18174;SDS011;9212;50.894;16.714;2023-02-24T04:15:08;34.17;;;15.30;;
18174;SDS011;9212;50.894;16.714;2023-02-24T04:17:39;37.97;;;15.17;;
18174;SDS011;9212;50.894;16.714;2023-02-24T04:20:08;36.43;;;16.20;;
18174;SDS011;9212;50.894;16.714;2023-02-24T04:22:39;35.13;;;14.33;;
18174;SDS011;9212;50.894;16.714;2023-02-24T04:25:09;32.00;;;14.50;;
18174;SDS011;9212;50.894;16.714;2023-02-24T04:27:40;36.00;;;13.83;;
18174;SDS011;9212;50.894;16.714;2023-02-24T04:30:09;33.63;;;14.37;;
18174;SDS011;9212;50.894;16.714;2023-02-24T04:32:37;32.97;;;15.30;;
18174;SDS011;9212;50.894;16.714;2023-02-24T04:35:07;35.87;;;15.63;;
18174;SDS011;9212;50.894;16.714;2023-02-24T04:37:39;32.50;;;14.60;;
18174;SDS011;9212;50.894;16.714;2023-02-24T04:40:10;28.70;;;13.20;;
18174;SDS011;9212;50.894;16.714;2023-02-24T04:42:40;30.50;;;14.83;;
18174;SDS011;9212;50.894;16.714;2023-02-24T04:45:13;30.23;;;14.53;;
18174;SDS011;9212;50.894;16.714;2023-02-24T04:47:41;33.93;;;15.10;;
18174;SDS011;9212;50.894;16.714;2023-02-24T04:50:10;33.70;;;15.27;;
18174;SDS011;9212;50.894;16.714;2023-02-24T04:52:47;35.30;;;13.03;;
18174;SDS011;9212;50.894;16.714;2023-02-24T04:55:16;34.13;;;15.20;;
18174;SDS011;9212;50.894;16.714;2023-02-24T04:57:43;29.23;;;13.07;;
18174;SDS011;9212;50.894;16.714;2023-02-24T05:00:12;30.63;;;14.60;;
18174;SDS011;9212;50.894;16.714;2023-02-24T05:02:45;30.13;;;14.57;;
18174;SDS011;9212;50.894;16.714;2023-02-24T05:05:13;31.03;;;13.53;;
18174;SDS011;9212;50.894;16.714;2023-02-24T05:07:41;27.87;;;12.57;;
18174;SDS011;9212;50.894;16.714;2023-02-24T05:10:12;35.67;;;14.73;;
18174;SDS011;9212;50.894;16.714;2023-02-24T05:12:40;31.80;;;14.87;;
18174;SDS011;9212;50.894;16.714;2023-02-24T05:15:08;29.43;;;13.43;;
18174;SDS011;9212;50.894;16.714;2023-02-24T05:17:36;32.77;;;14.20;;
18174;SDS011;9212;50.894;16.714;2023-02-24T05:20:05;29.43;;;13.70;;
18174;SDS011;9212;50.894;16.714;2023-02-24T05:22:50;29.80;;;13.70;;
18174;SDS011;9212;50.894;16.714;2023-02-24T05:25:18;34.30;;;15.00;;
18174;SDS011;9212;50.894;16.714;2023-02-24T05:27:46;32.43;;;14.13;;
18174;SDS011;9212;50.894;16.714;2023-02-24T05:30:14;38.00;;;15.70;;
18174;SDS011;9212;50.894;16.714;2023-02-24T05:32:42;36.80;;;15.47;;
18174;SDS011;9212;50.894;16.714;2023-02-24T05:35:10;40.33;;;16.33;;
18174;SDS011;9212;50.894;16.714;2023-02-24T05:37:38;40.63;;;17.70;;
18174;SDS011;9212;50.894;16.714;2023-02-24T05:40:08;38.13;;;17.00;;
18174;SDS011;9212;50.894;16.714;2023-02-24T05:42:37;37.37;;;16.33;;
18174;SDS011;9212;50.894;16.714;2023-02-24T05:45:10;43.63;;;16.57;;
18174;SDS011;9212;50.894;16.714;2023-02-24T05:47:37;43.20;;;16.00;;
18174;SDS011;9212;50.894;16.714;2023-02-24T05:50:06;31.37;;;14.70;;
18174;SDS011;9212;50.894;16.714;2023-02-24T05:52:36;34.17;;;14.73;;
18174;SDS011;9212;50.894;16.714;2023-02-24T05:55:03;33.77;;;14.57;;
18174;SDS011;9212;50.894;16.714;2023-02-24T05:57:38;39.57;;;16.03;;
18174;SDS011;9212;50.894;16.714;2023-02-24T06:00:06;37.70;;;15.57;;
18174;SDS011;9212;50.894;16.714;2023-02-24T06:02:41;39.37;;;16.10;;
18174;SDS011;9212;50.894;16.714;2023-02-24T06:05:17;33.60;;;15.10;;
18174;SDS011;9212;50.894;16.714;2023-02-24T06:07:55;37.47;;;16.20;;
18174;SDS011;9212;50.894;16.714;2023-02-24T06:10:29;35.67;;;16.27;;
18174;SDS011;9212;50.894;16.714;2023-02-24T06:12:57;37.43;;;16.60;;
18174;SDS011;9212;50.894;16.714;2023-02-24T06:15:26;43.90;;;18.70;;
18174;SDS011;9212;50.894;16.714;2023-02-24T06:17:55;32.00;;;15.17;;
18174;SDS011;9212;50.894;16.714;2023-02-24T06:20:25;40.77;;;17.73;;
18174;SDS011;9212;50.894;16.714;2023-02-24T06:22:53;41.67;;;16.63;;
18174;SDS011;9212;50.894;16.714;2023-02-24T06:25:22;38.53;;;17.50;;
18174;SDS011;9212;50.894;16.714;2023-02-24T06:27:50;41.10;;;17.63;;
18174;SDS011;9212;50.894;16.714;2023-02-24T06:30:18;39.47;;;15.87;;
18174;SDS011;9212;50.894;16.714;2023-02-24T06:32:46;39.10;;;16.20;;
18174;SDS011;9212;50.894;16.714;2023-02-24T06:35:15;35.83;;;15.37;;
18174;SDS011;9212;50.894;16.714;2023-02-24T06:37:42;37.93;;;17.90;;
18174;SDS011;9212;50.894;16.714;2023-02-24T06:40:09;32.13;;;13.50;;
18174;SDS011;9212;50.894;16.714;2023-02-24T06:42:43;32.83;;;15.03;;
18174;SDS011;9212;50.894;16.714;2023-02-24T06:45:11;34.07;;;15.37;;
18174;SDS011;9212;50.894;16.714;2023-02-24T06:47:39;31.43;;;14.13;;
18174;SDS011;9212;50.894;16.714;2023-02-24T06:50:07;31.40;;;14.63;;
18174;SDS011;9212;50.894;16.714;2023-02-24T06:52:36;33.37;;;14.63;;
18174;SDS011;9212;50.894;16.714;2023-02-24T06:55:05;35.13;;;15.70;;
18174;SDS011;9212;50.894;16.714;2023-02-24T06:57:49;31.07;;;13.90;;
18174;SDS011;9212;50.894;16.714;2023-02-24T07:00:17;35.00;;;14.83;;
18174;SDS011;9212;50.894;16.714;2023-02-24T07:02:46;33.93;;;15.53;;
18174;SDS011;9212;50.894;16.714;2023-02-24T07:05:13;24.40;;;10.57;;
18174;SDS011;9212;50.894;16.714;2023-02-24T07:07:42;18.93;;;8.87;;
18174;SDS011;9212;50.894;16.714;2023-02-24T07:10:10;16.80;;;7.90;;
18174;SDS011;9212;50.894;16.714;2023-02-24T07:12:38;17.30;;;7.67;;
18174;SDS011;9212;50.894;16.714;2023-02-24T07:15:06;14.00;;;7.33;;
18174;SDS011;9212;50.894;16.714;2023-02-24T07:17:34;20.60;;;8.10;;
18174;SDS011;9212;50.894;16.714;2023-02-24T07:20:02;17.97;;;8.23;;
18174;SDS011;9212;50.894;16.714;2023-02-24T07:22:36;21.93;;;10.33;;
18174;SDS011;9212;50.894;16.714;2023-02-24T07:25:05;25.67;;;10.87;;
18174;SDS011;9212;50.894;16.714;2023-02-24T07:27:32;27.20;;;11.13;;
18174;SDS011;9212;50.894;16.714;2023-02-24T07:30:00;37.57;;;13.63;;
18174;SDS011;9212;50.894;16.714;2023-02-24T07:32:30;21.20;;;10.50;;
18174;SDS011;9212;50.894;16.714;2023-02-24T07:34:57;38.37;;;16.73;;
18174;SDS011;9212;50.894;16.714;2023-02-24T07:37:25;33.27;;;15.70;;
18174;SDS011;9212;50.894;16.714;2023-02-24T07:39:55;33.00;;;13.43;;
18174;SDS011;9212;50.894;16.714;2023-02-24T07:42:24;34.70;;;12.73;;
18174;SDS011;9212;50.894;16.714;2023-02-24T07:44:54;28.57;;;10.77;;
18174;SDS011;9212;50.894;16.714;2023-02-24T07:47:21;30.03;;;12.13;;
18174;SDS011;9212;50.894;16.714;2023-02-24T07:49:49;31.53;;;12.20;;
18174;SDS011;9212;50.894;16.714;2023-02-24T07:52:16;34.70;;;12.77;;
18174;SDS011;9212;50.894;16.714;2023-02-24T07:54:43;27.87;;;11.20;;
18174;SDS011;9212;50.894;16.714;2023-02-24T07:57:11;28.07;;;11.10;;
18174;SDS011;9212;50.894;16.714;2023-02-24T07:59:40;27.57;;;11.07;;
18174;SDS011;9212;50.894;16.714;2023-02-24T08:02:11;27.30;;;10.73;;
18174;SDS011;9212;50.894;16.714;2023-02-24T08:04:38;29.07;;;10.27;;
18174;SDS011;9212;50.894;16.714;2023-02-24T08:07:08;28.80;;;10.30;;
18174;SDS011;9212;50.894;16.714;2023-02-24T08:09:38;24.90;;;10.90;;
18174;SDS011;9212;50.894;16.714;2023-02-24T08:12:23;36.73;;;12.73;;
18174;SDS011;9212;50.894;16.714;2023-02-24T08:14:52;23.83;;;9.20;;
18174;SDS011;9212;50.894;16.714;2023-02-24T08:17:24;28.43;;;10.17;;
18174;SDS011;9212;50.894;16.714;2023-02-24T08:19:52;26.63;;;10.27;;
18174;SDS011;9212;50.894;16.714;2023-02-24T08:22:40;28.33;;;9.57;;
18174;SDS011;9212;50.894;16.714;2023-02-24T08:25:08;33.60;;;11.00;;
18174;SDS011;9212;50.894;16.714;2023-02-24T08:27:42;23.17;;;10.00;;
18174;SDS011;9212;50.894;16.714;2023-02-24T08:30:12;30.57;;;9.87;;
18174;SDS011;9212;50.894;16.714;2023-02-24T08:32:47;23.77;;;9.80;;
18174;SDS011;9212;50.894;16.714;2023-02-24T08:35:21;25.10;;;8.67;;
18174;SDS011;9212;50.894;16.714;2023-02-24T08:37:50;28.17;;;9.47;;
18174;SDS011;9212;50.894;16.714;2023-02-24T08:40:19;23.33;;;8.40;;
18174;SDS011;9212;50.894;16.714;2023-02-24T08:43:15;19.37;;;8.27;;
18174;SDS011;9212;50.894;16.714;2023-02-24T08:45:45;20.93;;;8.83;;
18174;SDS011;9212;50.894;16.714;2023-02-24T08:48:16;14.67;;;8.20;;
18174;SDS011;9212;50.894;16.714;2023-02-24T08:50:51;21.87;;;8.53;;
18174;SDS011;9212;50.894;16.714;2023-02-24T08:53:19;20.70;;;7.97;;
18174;SDS011;9212;50.894;16.714;2023-02-24T08:55:46;18.17;;;8.00;;
18174;SDS011;9212;50.894;16.714;2023-02-24T08:58:16;16.97;;;8.20;;
18174;SDS011;9212;50.894;16.714;2023-02-24T09:00:45;17.33;;;7.80;;
18174;SDS011;9212;50.894;16.714;2023-02-24T09:03:18;12.43;;;6.83;;
18174;SDS011;9212;50.894;16.714;2023-02-24T09:05:57;17.60;;;7.90;;
18174;SDS011;9212;50.894;16.714;2023-02-24T09:08:25;17.77;;;8.50;;
18174;SDS011;9212;50.894;16.714;2023-02-24T09:10:57;18.83;;;8.30;;
18174;SDS011;9212;50.894;16.714;2023-02-24T09:13:24;15.50;;;8.10;;
18174;SDS011;9212;50.894;16.714;2023-02-24T09:15:58;16.33;;;7.57;;
18174;SDS011;9212;50.894;16.714;2023-02-24T09:18:26;19.47;;;8.40;;
18174;SDS011;9212;50.894;16.714;2023-02-24T09:21:06;21.40;;;9.90;;
18174;SDS011;9212;50.894;16.714;2023-02-24T09:24:16;19.97;;;9.83;;
18174;SDS011;9212;50.894;16.714;2023-02-24T09:26:51;20.50;;;10.40;;
18174;SDS011;9212;50.894;16.714;2023-02-24T09:29:23;22.67;;;9.13;;
18174;SDS011;9212;50.894;16.714;2023-02-24T09:32:01;17.43;;;8.57;;
18174;SDS011;9212;50.894;16.714;2023-02-24T09:34:31;16.53;;;8.00;;
18174;SDS011;9212;50.894;16.714;2023-02-24T09:36:59;18.53;;;8.77;;
18174;SDS011;9212;50.894;16.714;2023-02-24T09:39:30;22.60;;;10.10;;
18174;SDS011;9212;50.894;16.714;2023-02-24T09:42:20;17.07;;;8.03;;
18174;SDS011;9212;50.894;16.714;2023-02-24T09:45:11;12.80;;;7.40;;
18174;SDS011;9212;50.894;16.714;2023-02-24T09:47:41;16.23;;;7.70;;
18174;SDS011;9212;50.894;16.714;2023-02-24T09:50:26;18.03;;;8.17;;
18174;SDS011;9212;50.894;16.714;2023-02-24T09:53:10;19.10;;;8.30;;
18174;SDS011;9212;50.894;16.714;2023-02-24T09:55:42;14.50;;;7.03;;
18174;SDS011;9212;50.894;16.714;2023-02-24T09:58:26;12.67;;;6.70;;
18174;SDS011;9212;50.894;16.714;2023-02-24T10:00:57;14.90;;;6.97;;
18174;SDS011;9212;50.894;16.714;2023-02-24T10:03:46;19.60;;;8.30;;
18174;SDS011;9212;50.894;16.714;2023-02-24T10:06:17;14.20;;;6.90;;
18174;SDS011;9212;50.894;16.714;2023-02-24T10:08:48;17.70;;;8.73;;
18174;SDS011;9212;50.894;16.714;2023-02-24T10:11:16;14.73;;;7.63;;
18174;SDS011;9212;50.894;16.714;2023-02-24T10:13:57;10.37;;;6.33;;
18174;SDS011;9212;50.894;16.714;2023-02-24T10:16:25;8.63;;;5.40;;
18174;SDS011;9212;50.894;16.714;2023-02-24T10:19:09;12.23;;;5.37;;
18174;SDS011;9212;50.894;16.714;2023-02-24T10:21:42;13.00;;;5.20;;
18174;SDS011;9212;50.894;16.714;2023-02-24T10:24:25;10.33;;;5.20;;
18174;SDS011;9212;50.894;16.714;2023-02-24T10:27:00;8.53;;;5.10;;
18174;SDS011;9212;50.894;16.714;2023-02-24T10:29:36;11.77;;;5.87;;
18174;SDS011;9212;50.894;16.714;2023-02-24T10:32:19;8.40;;;4.43;;
18174;SDS011;9212;50.894;16.714;2023-02-24T10:34:57;13.13;;;5.77;;
18174;SDS011;9212;50.894;16.714;2023-02-24T10:37:24;10.70;;;5.70;;
18174;SDS011;9212;50.894;16.714;2023-02-24T10:39:55;17.77;;;7.23;;
18174;SDS011;9212;50.894;16.714;2023-02-24T10:42:24;13.33;;;5.37;;
18174;SDS011;9212;50.894;16.714;2023-02-24T10:45:03;11.07;;;5.80;;
18174;SDS011;9212;50.894;16.714;2023-02-24T10:47:38;11.57;;;5.33;;
18174;SDS011;9212;50.894;16.714;2023-02-24T10:50:18;8.93;;;4.87;;
18174;SDS011;9212;50.894;16.714;2023-02-24T10:52:54;10.77;;;5.30;;
18174;SDS011;9212;50.894;16.714;2023-02-24T10:55:50;6.77;;;4.43;;
18174;SDS011;9212;50.894;16.714;2023-02-24T10:58:21;8.30;;;4.70;;
18174;SDS011;9212;50.894;16.714;2023-02-24T11:01:05;11.17;;;5.37;;
18174;SDS011;9212;50.894;16.714;2023-02-24T11:03:46;12.60;;;5.33;;
18174;SDS011;9212;50.894;16.714;2023-02-24T11:06:27;8.97;;;4.53;;
18174;SDS011;9212;50.894;16.714;2023-02-24T11:09:13;10.30;;;5.17;;
18174;SDS011;9212;50.894;16.714;2023-02-24T11:11:56;12.73;;;6.53;;
18174;SDS011;9212;50.894;16.714;2023-02-24T11:14:47;13.67;;;5.67;;
18174;SDS011;9212;50.894;16.714;2023-02-24T11:17:34;10.73;;;5.13;;
18174;SDS011;9212;50.894;16.714;2023-02-24T11:20:03;9.73;;;5.33;;
18174;SDS011;9212;50.894;16.714;2023-02-24T11:22:36;13.27;;;5.73;;
18174;SDS011;9212;50.894;16.714;2023-02-24T11:25:07;14.67;;;6.30;;
18174;SDS011;9212;50.894;16.714;2023-02-24T11:27:44;12.10;;;7.20;;
18174;SDS011;9212;50.894;16.714;2023-02-24T11:30:14;14.53;;;6.77;;
18174;SDS011;9212;50.894;16.714;2023-02-24T11:32:50;15.63;;;6.43;;
18174;SDS011;9212;50.894;16.714;2023-02-24T11:35:27;14.17;;;6.97;;
18174;SDS011;9212;50.894;16.714;2023-02-24T11:38:05;18.80;;;8.10;;
18174;SDS011;9212;50.894;16.714;2023-02-24T11:40:42;7.83;;;4.30;;
18174;SDS011;9212;50.894;16.714;2023-02-24T11:43:15;6.27;;;3.93;;
18174;SDS011;9212;50.894;16.714;2023-02-24T11:45:46;7.53;;;4.10;;
18174;SDS011;9212;50.894;16.714;2023-02-24T11:48:17;8.43;;;4.13;;
18174;SDS011;9212;50.894;16.714;2023-02-24T11:50:48;7.13;;;4.47;;
18174;SDS011;9212;50.894;16.714;2023-02-24T11:53:24;7.00;;;4.53;;
18174;SDS011;9212;50.894;16.714;2023-02-24T11:55:55;5.97;;;4.10;;
18174;SDS011;9212;50.894;16.714;2023-02-24T11:58:27;8.73;;;4.40;;
18174;SDS011;9212;50.894;16.714;2023-02-24T12:01:00;8.90;;;4.17;;
18174;SDS011;9212;50.894;16.714;2023-02-24T12:03:34;10.40;;;4.37;;
18174;SDS011;9212;50.894;16.714;2023-02-24T12:06:13;4.50;;;3.17;;
18174;SDS011;9212;50.894;16.714;2023-02-24T12:08:49;4.67;;;3.37;;
18174;SDS011;9212;50.894;16.714;2023-02-24T12:11:21;3.97;;;3.00;;
18174;SDS011;9212;50.894;16.714;2023-02-24T12:13:58;4.20;;;2.77;;
18174;SDS011;9212;50.894;16.714;2023-02-24T12:16:34;4.70;;;2.83;;
18174;SDS011;9212;50.894;16.714;2023-02-24T12:19:10;6.37;;;2.77;;
18174;SDS011;9212;50.894;16.714;2023-02-24T12:21:44;4.97;;;2.63;;
18174;SDS011;9212;50.894;16.714;2023-02-24T12:24:18;4.77;;;2.50;;
18174;SDS011;9212;50.894;16.714;2023-02-24T12:26:48;3.90;;;2.90;;
18174;SDS011;9212;50.894;16.714;2023-02-24T12:29:36;3.57;;;2.20;;
18174;SDS011;9212;50.894;16.714;2023-02-24T12:32:08;4.27;;;2.67;;
18174;SDS011;9212;50.894;16.714;2023-02-24T12:34:38;4.37;;;3.00;;
18174;SDS011;9212;50.894;16.714;2023-02-24T12:37:27;12.80;;;3.43;;
18174;SDS011;9212;50.894;16.714;2023-02-24T12:40:01;9.00;;;2.90;;
18174;SDS011;9212;50.894;16.714;2023-02-24T12:42:39;3.90;;;2.97;;
18174;SDS011;9212;50.894;16.714;2023-02-24T12:45:09;6.17;;;3.20;;
18174;SDS011;9212;50.894;16.714;2023-02-24T12:47:44;5.20;;;2.63;;
18174;SDS011;9212;50.894;16.714;2023-02-24T12:50:29;4.70;;;3.17;;
18174;SDS011;9212;50.894;16.714;2023-02-24T12:53:10;8.07;;;2.77;;
18174;SDS011;9212;50.894;16.714;2023-02-24T12:55:49;5.83;;;3.37;;
18174;SDS011;9212;50.894;16.714;2023-02-24T12:58:20;5.60;;;3.50;;
18174;SDS011;9212;50.894;16.714;2023-02-24T13:00:51;5.47;;;4.07;;
18174;SDS011;9212;50.894;16.714;2023-02-24T13:03:31;5.47;;;3.30;;
18174;SDS011;9212;50.894;16.714;2023-02-24T13:06:13;4.30;;;2.90;;
18174;SDS011;9212;50.894;16.714;2023-02-24T13:08:44;4.23;;;3.23;;
18174;SDS011;9212;50.894;16.714;2023-02-24T13:11:15;8.43;;;4.20;;
18174;SDS011;9212;50.894;16.714;2023-02-24T13:13:48;9.00;;;4.30;;
18174;SDS011;9212;50.894;16.714;2023-02-24T13:16:26;4.77;;;3.10;;
18174;SDS011;9212;50.894;16.714;2023-02-24T13:19:02;6.83;;;3.50;;
18174;SDS011;9212;50.894;16.714;2023-02-24T13:21:30;7.60;;;4.47;;
18174;SDS011;9212;50.894;16.714;2023-02-24T13:23:58;13.53;;;4.80;;
18174;SDS011;9212;50.894;16.714;2023-02-24T13:26:28;9.20;;;5.03;;
18174;SDS011;9212;50.894;16.714;2023-02-24T13:28:57;5.90;;;4.10;;
18174;SDS011;9212;50.894;16.714;2023-02-24T13:31:25;15.43;;;6.80;;
18174;SDS011;9212;50.894;16.714;2023-02-24T13:33:52;25.20;;;7.97;;
18174;SDS011;9212;50.894;16.714;2023-02-24T13:36:20;27.07;;;10.00;;
18174;SDS011;9212;50.894;16.714;2023-02-24T13:38:49;24.03;;;9.77;;
18174;SDS011;9212;50.894;16.714;2023-02-24T13:41:33;10.40;;;5.80;;
18174;SDS011;9212;50.894;16.714;2023-02-24T13:44:20;11.90;;;6.00;;
18174;SDS011;9212;50.894;16.714;2023-02-24T13:47:02;6.83;;;4.90;;
18174;SDS011;9212;50.894;16.714;2023-02-24T13:49:42;4.93;;;3.90;;
18174;SDS011;9212;50.894;16.714;2023-02-24T13:52:23;8.33;;;4.03;;
18174;SDS011;9212;50.894;16.714;2023-02-24T13:55:11;5.37;;;4.00;;
18174;SDS011;9212;50.894;16.714;2023-02-24T13:57:58;9.43;;;4.77;;
18174;SDS011;9212;50.894;16.714;2023-02-24T14:00:38;9.73;;;6.80;;
18174;SDS011;9212;50.894;16.714;2023-02-24T14:03:23;11.67;;;6.03;;
18174;SDS011;9212;50.894;16.714;2023-02-24T14:05:52;6.07;;;4.50;;
18174;SDS011;9212;50.894;16.714;2023-02-24T14:08:20;4.07;;;3.03;;
18174;SDS011;9212;50.894;16.714;2023-02-24T14:10:50;7.87;;;4.33;;
18174;SDS011;9212;50.894;16.714;2023-02-24T14:13:22;8.00;;;4.90;;
18174;SDS011;9212;50.894;16.714;2023-02-24T14:15:54;6.00;;;4.47;;
18174;SDS011;9212;50.894;16.714;2023-02-24T14:18:23;5.23;;;4.03;;
18174;SDS011;9212;50.894;16.714;2023-02-24T14:20:52;4.67;;;3.97;;
18174;SDS011;9212;50.894;16.714;2023-02-24T14:23:21;5.77;;;3.60;;
18174;SDS011;9212;50.894;16.714;2023-02-24T14:25:53;4.40;;;3.37;;
18174;SDS011;9212;50.894;16.714;2023-02-24T14:28:23;4.73;;;3.10;;
18174;SDS011;9212;50.894;16.714;2023-02-24T14:30:54;3.77;;;2.77;;
18174;SDS011;9212;50.894;16.714;2023-02-24T14:33:24;3.63;;;2.60;;
18174;SDS011;9212;50.894;16.714;2023-02-24T14:35:53;3.60;;;2.60;;
18174;SDS011;9212;50.894;16.714;2023-02-24T14:38:30;3.23;;;1.97;;
18174;SDS011;9212;50.894;16.714;2023-02-24T14:40:58;3.67;;;2.53;;
18174;SDS011;9212;50.894;16.714;2023-02-24T14:43:27;3.50;;;2.70;;
18174;SDS011;9212;50.894;16.714;2023-02-24T14:45:54;9.90;;;6.10;;
18174;SDS011;9212;50.894;16.714;2023-02-24T14:48:23;14.27;;;7.50;;
18174;SDS011;9212;50.894;16.714;2023-02-24T14:50:51;17.80;;;8.10;;
18174;SDS011;9212;50.894;16.714;2023-02-24T14:53:19;32.03;;;14.07;;
18174;SDS011;9212;50.894;16.714;2023-02-24T14:55:50;50.43;;;23.70;;
18174;SDS011;9212;50.894;16.714;2023-02-24T14:58:20;56.67;;;25.57;;
18174;SDS011;9212;50.894;16.714;2023-02-24T15:00:50;42.27;;;20.13;;
18174;SDS011;9212;50.894;16.714;2023-02-24T15:03:21;38.63;;;17.70;;
18174;SDS011;9212;50.894;16.714;2023-02-24T15:05:49;24.30;;;13.03;;